createdAt,value
2022-08-23T00:00:13.047Z,2.83
2022-08-23T00:02:43.383Z,3.03
2022-08-23T00:05:11.764Z,3.30
2022-08-23T00:07:43.551Z,2.90
2022-08-23T00:10:15.943Z,2.30
2022-08-23T00:12:47.101Z,2.90
2022-08-23T00:15:18.702Z,3.00
2022-08-23T00:17:47.086Z,2.67
2022-08-23T00:20:21.132Z,2.87
2022-08-23T00:22:49.235Z,2.67
2022-08-23T00:25:17.749Z,2.50
2022-08-23T00:27:47.181Z,2.53
2022-08-23T00:30:16.976Z,2.50
2022-08-23T00:32:46.373Z,2.47
2022-08-23T00:35:26.620Z,2.47
2022-08-23T00:38:31.756Z,3.13
2022-08-23T00:40:48.843Z,2.70
2022-08-23T00:43:39.362Z,2.63
2022-08-23T00:46:48.054Z,2.30
2022-08-23T00:49:17.688Z,2.50
2022-08-23T00:51:53.376Z,2.70
2022-08-23T00:54:24.517Z,2.40
2022-08-23T00:56:54.749Z,2.47
2022-08-23T00:59:24.505Z,2.37
2022-08-23T01:01:53.201Z,2.37
2022-08-23T01:04:21.700Z,2.50
2022-08-23T01:07:01.444Z,2.50
2022-08-23T01:09:29.673Z,2.10
2022-08-23T01:12:04.928Z,2.43
2022-08-23T01:14:39.940Z,2.50
2022-08-23T01:17:14.697Z,2.67
2022-08-23T01:19:48.600Z,2.70
2022-08-23T01:22:21.904Z,2.47
2022-08-23T01:25:08.414Z,2.27
2022-08-23T01:27:37.182Z,3.23
2022-08-23T01:30:08.469Z,2.00
2022-08-23T01:32:43.652Z,2.50
2022-08-23T01:35:12.541Z,2.50
2022-08-23T01:37:41.657Z,2.30
2022-08-23T01:40:12.491Z,2.47
2022-08-23T01:42:41.523Z,2.57
2022-08-23T01:45:13.004Z,2.03
2022-08-23T01:47:42.002Z,2.67
2022-08-23T01:50:12.850Z,2.90
2022-08-23T01:52:47.117Z,2.53
2022-08-23T01:55:17.823Z,2.63
2022-08-23T01:57:49.318Z,2.70
2022-08-23T02:00:18.502Z,2.87
2022-08-23T02:02:46.880Z,2.73
2022-08-23T02:05:18.794Z,2.27
2022-08-23T02:07:47.803Z,2.50
2022-08-23T02:10:17.509Z,3.17
2022-08-23T02:12:46.650Z,2.80
2022-08-23T02:15:16.574Z,3.10
2022-08-23T02:17:45.489Z,2.80
2022-08-23T02:20:14.143Z,3.60
2022-08-23T02:22:42.405Z,2.20
2022-08-23T02:25:11.305Z,3.10
2022-08-23T02:27:44.021Z,2.80
2022-08-23T02:30:14.252Z,3.17
2022-08-23T02:32:42.409Z,2.83
2022-08-23T02:35:10.768Z,2.83
2022-08-23T02:37:39.152Z,3.03
2022-08-23T02:40:09.402Z,3.73
2022-08-23T02:42:37.536Z,2.67
2022-08-23T02:45:09.301Z,3.00
2022-08-23T02:47:37.721Z,3.40
2022-08-23T02:50:06.652Z,2.90
2022-08-23T02:52:35.249Z,2.50
2022-08-23T02:55:03.702Z,3.07
2022-08-23T02:57:31.792Z,2.93
2022-08-23T02:59:59.957Z,2.40
2022-08-23T03:02:29.649Z,2.37
2022-08-23T03:04:57.925Z,2.20
2022-08-23T03:07:26.162Z,2.97
2022-08-23T03:09:54.192Z,2.60
2022-08-23T03:12:22.203Z,3.17
2022-08-23T03:14:52.062Z,2.63
2022-08-23T03:17:21.133Z,2.73
2022-08-23T03:19:52.216Z,3.00
2022-08-23T03:22:20.712Z,3.10
2022-08-23T03:24:48.725Z,2.83
2022-08-23T03:27:17.328Z,2.20
2022-08-23T03:29:45.423Z,2.83
2022-08-23T03:32:15.566Z,2.40
2022-08-23T03:34:43.754Z,2.60
2022-08-23T03:37:13.165Z,2.37
2022-08-23T03:39:41.458Z,1.80
2022-08-23T03:42:09.878Z,3.00
2022-08-23T03:44:37.912Z,2.40
2022-08-23T03:47:06.900Z,3.00
2022-08-23T03:49:35.326Z,2.20
2022-08-23T03:52:04.301Z,2.40
2022-08-23T03:54:34.164Z,2.10
2022-08-23T03:57:05.266Z,2.73
2022-08-23T03:59:35.844Z,2.80
2022-08-23T04:02:04.613Z,2.87
2022-08-23T04:04:32.928Z,2.40
2022-08-23T04:07:01.371Z,2.20
2022-08-23T04:09:29.842Z,2.73
2022-08-23T04:11:59.210Z,2.70
2022-08-23T04:14:27.367Z,2.50
2022-08-23T04:16:55.795Z,2.20
2022-08-23T04:19:25.281Z,3.00
2022-08-23T04:21:54.050Z,2.70
2022-08-23T04:24:22.081Z,2.67
2022-08-23T04:26:50.189Z,2.60
2022-08-23T04:29:28.767Z,2.80
2022-08-23T04:32:05.550Z,3.13
2022-08-23T04:34:38.149Z,3.47
2022-08-23T04:37:09.341Z,3.70
2022-08-23T04:39:54.067Z,4.10
2022-08-23T04:42:23.214Z,4.00
2022-08-23T04:44:52.869Z,3.43
2022-08-23T04:47:21.344Z,3.93
2022-08-23T04:49:49.425Z,4.17
2022-08-23T04:52:19.544Z,4.03
2022-08-23T04:54:48.150Z,4.20
2022-08-23T04:57:16.777Z,4.60
2022-08-23T04:59:44.841Z,4.00
2022-08-23T05:02:14.905Z,4.17
2022-08-23T05:04:43.092Z,4.03
2022-08-23T05:07:11.300Z,4.63
2022-08-23T05:09:39.400Z,4.57
2022-08-23T05:12:08.076Z,4.63
2022-08-23T05:14:36.496Z,4.30
2022-08-23T05:17:04.736Z,4.73
2022-08-23T05:19:34.132Z,4.90
2022-08-23T05:22:05.497Z,4.67
2022-08-23T05:24:36.264Z,4.50
2022-08-23T05:27:10.619Z,4.20
2022-08-23T05:29:41.540Z,4.30
2022-08-23T05:32:10.504Z,4.10
2022-08-23T05:34:40.054Z,5.87
2022-08-23T05:37:08.149Z,5.40
2022-08-23T05:39:37.439Z,4.80
2022-08-23T05:42:06.693Z,4.90
2022-08-23T05:44:36.238Z,4.80
2022-08-23T05:47:10.150Z,5.23
2022-08-23T05:49:41.184Z,4.63
2022-08-23T05:52:13.219Z,4.37
2022-08-23T05:54:42.047Z,4.30
2022-08-23T05:57:11.495Z,4.00
2022-08-23T05:59:43.905Z,3.63
2022-08-23T06:02:12.021Z,4.23
2022-08-23T06:04:42.102Z,4.17
2022-08-23T06:07:11.486Z,4.23
2022-08-23T06:09:39.860Z,3.80
2022-08-23T06:12:08.500Z,4.33
2022-08-23T06:14:36.677Z,3.70
2022-08-23T06:17:05.555Z,4.00
2022-08-23T06:19:33.901Z,4.80
2022-08-23T06:22:03.352Z,4.83
2022-08-23T06:24:31.402Z,4.20
2022-08-23T06:26:59.485Z,3.50
2022-08-23T06:29:27.628Z,3.97
2022-08-23T06:31:55.833Z,4.70
2022-08-23T06:34:29.255Z,4.10
2022-08-23T06:37:00.032Z,4.40
2022-08-23T06:39:35.433Z,3.73
2022-08-23T06:42:34.492Z,4.53
2022-08-23T06:44:56.295Z,4.47
2022-08-23T06:47:24.384Z,3.80
2022-08-23T06:49:57.622Z,3.47
2022-08-23T06:52:27.199Z,4.90
2022-08-23T06:54:57.666Z,3.50
2022-08-23T06:57:26.414Z,4.83
2022-08-23T06:59:54.899Z,4.43
2022-08-23T07:02:23.028Z,4.43
2022-08-23T07:04:54.035Z,4.10
2022-08-23T07:07:22.685Z,3.93
2022-08-23T07:09:50.867Z,4.40
2022-08-23T07:12:20.916Z,4.30
2022-08-23T07:14:49.614Z,3.73
2022-08-23T07:17:17.761Z,3.77
2022-08-23T07:19:45.872Z,3.40
2022-08-23T07:22:15.640Z,4.30
2022-08-23T07:24:49.865Z,3.87
2022-08-23T07:27:17.963Z,3.80
2022-08-23T07:29:47.592Z,3.30
2022-08-23T07:32:18.571Z,4.17
2022-08-23T07:34:47.027Z,3.57
2022-08-23T07:37:17.184Z,4.10
2022-08-23T07:39:45.543Z,3.90
2022-08-23T07:42:23.291Z,3.63
2022-08-23T07:44:54.907Z,4.10
2022-08-23T07:47:23.260Z,3.90
2022-08-23T07:49:51.937Z,4.43
2022-08-23T07:52:21.342Z,4.20
2022-08-23T07:54:49.775Z,3.90
2022-08-23T07:57:19.863Z,3.83
2022-08-23T07:59:48.517Z,3.47
2022-08-23T08:02:18.061Z,4.10
2022-08-23T08:04:46.270Z,3.77
2022-08-23T08:07:21.714Z,4.30
2022-08-23T08:09:49.987Z,3.30
2022-08-23T08:12:18.386Z,4.17
2022-08-23T08:14:48.150Z,4.20
2022-08-23T08:17:18.957Z,3.30
2022-08-23T08:19:47.557Z,4.13
2022-08-23T08:22:15.646Z,4.13
2022-08-23T08:24:44.276Z,4.30
2022-08-23T08:27:12.499Z,4.63
2022-08-23T08:29:41.868Z,4.57
2022-08-23T08:32:13.884Z,4.40
2022-08-23T08:34:44.085Z,4.70
2022-08-23T08:37:12.467Z,4.27
2022-08-23T08:39:45.465Z,3.70
2022-08-23T08:42:34.614Z,4.07
2022-08-23T08:45:09.981Z,3.43
2022-08-23T08:47:46.317Z,4.17
2022-08-23T08:50:26.500Z,4.20
2022-08-23T08:53:01.686Z,3.60
2022-08-23T08:55:35.143Z,3.93
2022-08-23T08:58:05.882Z,4.37
2022-08-23T09:00:38.947Z,4.00
2022-08-23T09:03:14.236Z,3.40
2022-08-23T09:05:55.058Z,3.80
2022-08-23T09:08:42.429Z,3.53
2022-08-23T09:11:23.193Z,4.77
2022-08-23T09:14:20.462Z,5.60
2022-08-23T09:16:53.881Z,4.63
2022-08-23T09:19:25.072Z,3.87
2022-08-23T09:22:00.035Z,4.10
2022-08-23T09:24:29.149Z,4.03
2022-08-23T09:26:58.587Z,4.33
2022-08-23T09:29:29.885Z,3.80
2022-08-23T09:32:02.386Z,4.53
2022-08-23T09:34:44.309Z,4.00
2022-08-23T09:37:19.910Z,4.00
2022-08-23T09:39:51.542Z,4.27
2022-08-23T09:42:33.201Z,4.53
2022-08-23T09:45:02.088Z,4.80
2022-08-23T09:47:41.735Z,4.10
2022-08-23T09:50:26.093Z,3.87
2022-08-23T09:53:04.417Z,3.83
2022-08-23T09:55:36.263Z,4.00
2022-08-23T09:58:16.667Z,3.67
2022-08-23T10:00:45.253Z,4.20
2022-08-23T10:03:27.488Z,4.27
2022-08-23T10:05:59.114Z,3.30
2022-08-23T10:08:33.787Z,3.90
2022-08-23T10:11:13.399Z,4.43
2022-08-23T10:13:44.588Z,3.90
2022-08-23T10:16:23.505Z,3.60
2022-08-23T10:19:00.641Z,3.83
2022-08-23T10:21:40.105Z,4.10
2022-08-23T10:24:22.488Z,3.57
2022-08-23T10:27:25.179Z,4.20
2022-08-23T10:30:01.663Z,4.00
2022-08-23T10:32:46.687Z,3.67
2022-08-23T10:35:32.244Z,3.83
2022-08-23T10:38:27.585Z,3.63
2022-08-23T10:41:04.588Z,3.50
2022-08-23T10:43:43.618Z,4.20
2022-08-23T10:46:12.928Z,3.43
2022-08-23T10:48:51.440Z,3.80
2022-08-23T10:51:31.695Z,3.33
2022-08-23T10:54:06.206Z,3.40
2022-08-23T10:56:42.911Z,3.60
2022-08-23T10:59:17.372Z,3.80
2022-08-23T11:01:54.392Z,3.40
2022-08-23T11:04:32.998Z,3.57
2022-08-23T11:07:03.131Z,3.37
2022-08-23T11:09:52.140Z,3.00
2022-08-23T11:12:28.182Z,2.90
2022-08-23T11:15:13.943Z,3.77
2022-08-23T11:18:00.307Z,3.30
2022-08-23T11:21:07.572Z,3.00
2022-08-23T11:23:47.901Z,2.87
2022-08-23T11:27:06.551Z,3.23
2022-08-23T11:29:43.462Z,2.90
2022-08-23T11:32:33.145Z,3.33
2022-08-23T11:35:13.704Z,2.87
2022-08-23T11:38:04.829Z,2.93
2022-08-23T11:41:00.507Z,2.90
2022-08-23T11:43:34.799Z,3.30
2022-08-23T11:46:34.683Z,2.70
2022-08-23T11:49:37.030Z,2.80
2022-08-23T11:52:20.493Z,2.70
2022-08-23T11:55:24.980Z,2.63
2022-08-23T11:58:15.317Z,2.87
2022-08-23T12:01:07.484Z,3.53
2022-08-23T12:03:55.892Z,3.40
2022-08-23T12:06:51.079Z,2.70
2022-08-23T12:09:56.206Z,3.27
2022-08-23T12:12:39.247Z,2.70
2022-08-23T12:15:12.060Z,2.20
2022-08-23T12:18:13.101Z,2.40
2022-08-23T12:20:44.765Z,2.57
2022-08-23T12:23:21.654Z,3.10
2022-08-23T12:26:01.988Z,2.47
2022-08-23T12:28:43.971Z,2.27
2022-08-23T12:31:28.657Z,2.87
2022-08-23T12:34:19.500Z,2.93
2022-08-23T12:36:58.746Z,2.93
2022-08-23T12:39:34.358Z,3.67
2022-08-23T12:42:08.349Z,4.60
2022-08-23T12:44:36.468Z,4.70
2022-08-23T12:47:15.041Z,5.80
2022-08-23T12:49:43.874Z,4.87
2022-08-23T12:52:13.883Z,4.57
2022-08-23T12:54:45.337Z,3.83
2022-08-23T12:57:19.157Z,4.33
2022-08-23T13:00:16.487Z,3.90
2022-08-23T13:02:53.694Z,3.70
2022-08-23T13:05:33.101Z,3.40
2022-08-23T13:08:08.421Z,3.27
2022-08-23T13:10:39.643Z,3.87
2022-08-23T13:13:12.770Z,4.00
2022-08-23T13:15:44.536Z,3.13
2022-08-23T13:18:24.745Z,3.67
2022-08-23T13:21:39.605Z,3.53
2022-08-23T13:24:38.461Z,3.83
2022-08-23T13:27:21.747Z,3.27
2022-08-23T13:29:55.970Z,4.47
2022-08-23T13:32:39.071Z,3.03
2022-08-23T13:35:34.376Z,3.00
2022-08-23T13:38:20.922Z,3.37
2022-08-23T13:40:58.712Z,6.60
2022-08-23T13:43:32.319Z,8.57
2022-08-23T13:46:12.601Z,9.23
2022-08-23T13:48:49.369Z,6.87
2022-08-23T13:51:29.284Z,6.20
2022-08-23T13:54:00.249Z,6.00
2022-08-23T13:56:32.175Z,5.20
2022-08-23T13:59:03.881Z,4.70
2022-08-23T14:01:32.731Z,4.80
2022-08-23T14:04:00.891Z,4.37
2022-08-23T14:06:28.937Z,4.50
2022-08-23T14:08:57.018Z,4.60
2022-08-23T14:11:25.149Z,4.10
2022-08-23T14:13:54.813Z,4.20
2022-08-23T14:16:39.205Z,4.00
2022-08-23T14:19:54.570Z,3.70
2022-08-23T14:21:59.779Z,3.80
2022-08-23T14:24:28.826Z,4.03
2022-08-23T14:26:57.366Z,3.83
2022-08-23T14:29:29.111Z,3.47
2022-08-23T14:31:59.840Z,3.10
2022-08-23T14:34:29.560Z,3.30
2022-08-23T14:39:47.489Z,3.00
2022-08-23T14:42:20.591Z,3.40
2022-08-23T14:44:50.359Z,3.03
2022-08-23T14:47:18.976Z,3.10
2022-08-23T14:49:49.025Z,3.17
2022-08-23T14:52:20.186Z,3.30
2022-08-23T14:54:49.506Z,2.80
2022-08-23T14:57:17.865Z,3.50
2022-08-23T14:59:46.177Z,3.50
2022-08-23T15:02:25.736Z,2.50
2022-08-23T15:04:54.690Z,2.87
2022-08-23T15:07:23.289Z,3.23
2022-08-23T15:09:55.056Z,2.77
2022-08-23T15:15:21.735Z,2.87
2022-08-23T15:17:55.854Z,2.10
2022-08-23T15:20:27.556Z,2.90
2022-08-23T15:22:56.233Z,2.90
2022-08-23T15:25:25.945Z,2.67
2022-08-23T15:27:54.312Z,2.47
2022-08-23T15:30:24.575Z,2.23
2022-08-23T15:32:56.574Z,2.80
2022-08-23T15:35:26.731Z,2.50
2022-08-23T15:37:57.447Z,2.80
2022-08-23T15:40:27.335Z,2.57
2022-08-23T15:42:55.765Z,2.73
2022-08-23T15:45:24.470Z,3.00
2022-08-23T15:47:58.958Z,2.90
2022-08-23T15:50:34.351Z,2.70
2022-08-23T15:53:03.333Z,2.60
2022-08-23T15:55:33.815Z,2.87
2022-08-23T15:58:02.122Z,2.63
2022-08-23T16:00:30.480Z,2.40
2022-08-23T16:03:27.901Z,2.20
2022-08-23T16:05:51.662Z,2.30
2022-08-23T16:08:24.826Z,1.87
2022-08-23T16:10:54.360Z,2.07
2022-08-23T16:13:23.202Z,1.80
2022-08-23T16:15:51.633Z,2.07
2022-08-23T16:18:21.262Z,2.17
2022-08-23T16:20:49.437Z,2.20
2022-08-23T16:23:22.799Z,2.57
2022-08-23T16:25:51.388Z,2.63
2022-08-23T16:28:19.624Z,1.83
2022-08-23T16:30:47.767Z,2.20
2022-08-23T16:33:15.903Z,2.40
2022-08-23T16:35:45.323Z,2.20
2022-08-23T16:38:13.471Z,2.20
2022-08-23T16:40:41.606Z,1.80
2022-08-23T16:43:09.749Z,2.20
2022-08-23T16:45:37.888Z,2.10
2022-08-23T16:48:06.553Z,2.03
2022-08-23T16:50:34.951Z,2.40
2022-08-23T16:53:07.438Z,2.33
2022-08-23T16:55:36.618Z,2.30
2022-08-23T16:58:05.450Z,2.10
2022-08-23T17:00:33.561Z,2.30
2022-08-23T17:03:02.279Z,2.77
2022-08-23T17:05:30.402Z,2.37
2022-08-23T17:07:59.196Z,2.30
2022-08-23T17:10:29.509Z,2.70
2022-08-23T17:12:59.007Z,2.60
2022-08-23T17:15:30.397Z,3.30
2022-08-23T17:17:58.773Z,2.50
2022-08-23T17:20:30.329Z,1.87
2022-08-23T17:22:58.823Z,1.90
2022-08-23T17:25:28.420Z,2.30
2022-08-23T17:27:58.721Z,2.07
2022-08-23T17:30:29.596Z,1.77
2022-08-23T17:32:58.697Z,2.03
2022-08-23T17:35:33.729Z,2.13
2022-08-23T17:38:04.848Z,2.30
2022-08-23T17:40:37.785Z,2.00
2022-08-23T17:43:07.635Z,2.10
2022-08-23T17:45:43.356Z,2.40
2022-08-23T17:48:11.949Z,1.70
2022-08-23T17:50:43.373Z,2.00
2022-08-23T17:53:12.742Z,2.40
2022-08-23T17:55:43.861Z,2.53
2022-08-23T17:58:14.077Z,1.73
2022-08-23T18:00:42.556Z,1.80
2022-08-23T18:03:10.667Z,2.17
2022-08-23T18:05:42.801Z,2.17
2022-08-23T18:08:11.439Z,2.07
2022-08-23T18:10:41.188Z,2.07
2022-08-23T18:13:09.336Z,1.70
2022-08-23T18:15:37.549Z,1.97
2022-08-23T18:18:05.807Z,2.57
2022-08-23T18:20:34.151Z,2.00
2022-08-23T18:23:02.343Z,2.00
2022-08-23T18:25:30.683Z,1.73
2022-08-23T18:28:09.065Z,2.03
2022-08-23T18:30:40.408Z,1.80
2022-08-23T18:33:12.472Z,1.70
2022-08-23T18:35:42.122Z,2.10
2022-08-23T18:38:12.465Z,2.20
2022-08-23T18:40:48.473Z,2.07
2022-08-23T18:43:21.926Z,2.03
2022-08-23T18:45:53.462Z,2.17
2022-08-23T18:48:23.129Z,2.50
2022-08-23T18:50:51.914Z,2.53
2022-08-23T18:53:21.499Z,2.57
2022-08-23T18:55:49.879Z,2.30
2022-08-23T18:58:21.014Z,3.27
2022-08-23T19:00:49.370Z,2.60
2022-08-23T19:03:18.997Z,2.90
2022-08-23T19:05:47.456Z,2.50
2022-08-23T19:08:16.015Z,2.93
2022-08-23T19:10:45.165Z,2.17
2022-08-23T19:13:14.254Z,2.80
2022-08-23T19:15:43.698Z,2.23
2022-08-23T19:18:11.770Z,2.63
2022-08-23T19:20:39.800Z,2.20
2022-08-23T19:23:08.098Z,2.70
2022-08-23T19:25:38.356Z,2.63
2022-08-23T19:28:07.283Z,2.43
2022-08-23T19:30:36.014Z,3.30
2022-08-23T19:33:06.448Z,3.13
2022-08-23T19:35:34.772Z,5.50
2022-08-23T19:38:02.943Z,7.07
2022-08-23T19:40:31.188Z,9.60
2022-08-23T19:43:00.334Z,6.70
2022-08-23T19:45:32.158Z,7.77
2022-08-23T19:48:00.673Z,7.73
2022-08-23T19:50:30.265Z,8.07
2022-08-23T19:52:58.389Z,9.03
2022-08-23T19:55:27.305Z,9.20
2022-08-23T19:57:56.263Z,9.40
2022-08-23T20:00:26.394Z,10.03
2022-08-23T20:02:55.441Z,9.87
2022-08-23T20:05:23.836Z,9.73
2022-08-23T20:07:53.270Z,8.80
2022-08-23T20:10:22.060Z,9.70
2022-08-23T20:12:50.108Z,10.20
2022-08-23T20:15:18.371Z,9.13
2022-08-23T20:17:52.447Z,9.40
2022-08-23T20:20:20.769Z,9.30
2022-08-23T20:23:06.406Z,8.97
2022-08-23T20:25:36.553Z,9.50
2022-08-23T20:28:08.148Z,8.90
2022-08-23T20:30:37.448Z,8.20
2022-08-23T20:33:05.556Z,8.90
2022-08-23T20:35:37.994Z,8.90
2022-08-23T20:38:08.733Z,9.27
2022-08-23T20:40:51.741Z,8.93
2022-08-23T20:43:22.282Z,8.80
2022-08-23T20:45:50.334Z,9.10
2022-08-23T20:48:18.681Z,8.00
2022-08-23T20:50:46.885Z,8.43
2022-08-23T20:53:14.956Z,8.37
2022-08-23T20:55:43.160Z,8.20
2022-08-23T20:58:14.195Z,8.63
2022-08-23T21:00:43.988Z,9.00
2022-08-23T21:03:12.231Z,8.73
2022-08-23T21:05:40.309Z,8.63
2022-08-23T21:08:12.941Z,8.40
2022-08-23T21:10:41.690Z,8.53
2022-08-23T21:13:14.592Z,7.80
2022-08-23T21:15:42.703Z,7.97
2022-08-23T21:18:10.843Z,8.00
2022-08-23T21:20:38.858Z,7.43
2022-08-23T21:23:07.560Z,6.80
2022-08-23T21:25:35.716Z,7.37
2022-08-23T21:28:04.696Z,8.87
2022-08-23T21:30:34.092Z,7.30
2022-08-23T21:33:02.223Z,7.50
2022-08-23T21:35:30.845Z,7.40
2022-08-23T21:37:58.876Z,7.80
2022-08-23T21:40:26.938Z,7.60
2022-08-23T21:42:55.000Z,7.40
2022-08-23T21:45:23.316Z,7.50
2022-08-23T21:47:52.784Z,7.40
2022-08-23T21:50:21.099Z,7.23
2022-08-23T21:52:56.244Z,7.67
2022-08-23T21:55:36.176Z,6.67
2022-08-23T21:58:05.326Z,7.30
2022-08-23T22:00:34.326Z,7.10
2022-08-23T22:03:05.363Z,7.13
2022-08-23T22:05:34.039Z,7.03
2022-08-23T22:08:02.051Z,6.67
2022-08-23T22:10:30.109Z,6.57
2022-08-23T22:12:58.825Z,6.60
2022-08-23T22:15:27.061Z,6.97
2022-08-23T22:17:55.138Z,6.73
2022-08-23T22:20:24.533Z,6.27
2022-08-23T22:22:52.597Z,6.93
2022-08-23T22:25:20.845Z,6.93
2022-08-23T22:27:48.915Z,6.97
2022-08-23T22:30:18.396Z,6.80
2022-08-23T22:32:46.736Z,7.40
2022-08-23T22:35:14.973Z,6.93
2022-08-23T22:38:03.666Z,5.87
2022-08-23T22:40:33.560Z,7.10
2022-08-23T22:43:02.611Z,6.67
2022-08-23T22:45:30.692Z,6.50
2022-08-23T22:47:58.814Z,5.77
2022-08-23T22:50:27.008Z,6.53
2022-08-23T22:52:56.454Z,6.57
2022-08-23T22:55:24.940Z,6.03
2022-08-23T22:57:53.015Z,5.37
2022-08-23T23:00:21.530Z,6.23
2022-08-23T23:02:49.591Z,6.17
2022-08-23T23:05:19.229Z,6.20
2022-08-23T23:08:05.059Z,6.60
2022-08-23T23:10:34.463Z,5.60
2022-08-23T23:13:02.502Z,6.27
2022-08-23T23:15:31.254Z,6.03
2022-08-23T23:17:59.376Z,5.50
2022-08-23T23:20:39.779Z,6.17
2022-08-23T23:23:09.843Z,5.53
2022-08-23T23:25:42.557Z,6.20
2022-08-23T23:28:10.767Z,5.40
2022-08-23T23:30:39.010Z,6.20
2022-08-23T23:33:07.196Z,6.07
2022-08-23T23:35:35.607Z,6.70
2022-08-23T23:38:04.737Z,6.20
2022-08-23T23:40:34.212Z,6.37
2022-08-23T23:43:04.094Z,5.33
2022-08-23T23:45:32.466Z,5.27
2022-08-23T23:48:00.908Z,5.80
2022-08-23T23:50:31.085Z,6.07
2022-08-23T23:52:59.109Z,5.60
2022-08-23T23:55:27.802Z,6.73
2022-08-23T23:57:57.399Z,5.30
